5YKIN LEWA-HKOK
Flight info
| Callsign | 5YKIN |
|---|---|
| Flight time | N/A |
| Altitude | 20000 |
| Route | ETUNU |
| Aircraft | B350/L-SBGRW/S |
Departure
| Time | N/A |
|---|---|
| Airport | LEWA |
Arrival
| Time | 2025-11-05 11:15 |
|---|---|
| Airport | Mara-Olkiombo Airport (HKOK) |
| Time | Latitude | Longitude | Altitude | Speed | Heading |
|---|---|---|---|---|---|
| 2025-11-05 10:28 | 0.19525 | 37.47050 | 5677 ft | 0 kts | 321° |
| 2025-11-05 10:33 | 0.19553 | 37.47020 | 5672 ft | 13 kts | 334° |
| 2025-11-05 10:34 | 0.19874 | 37.46718 | 5642 ft | 41 kts | 319° |
| 2025-11-05 10:34 | 0.20048 | 37.46558 | 5626 ft | 6 kts | 129° |
| 2025-11-05 10:35 | 0.19369 | 37.47165 | 5690 ft | 117 kts | 140° |
| 2025-11-05 10:35 | 0.18049 | 37.45990 | 6641 ft | 150 kts | 280° |
| 2025-11-05 10:36 | 0.17808 | 37.43531 | 6865 ft | 204 kts | 245° |
| 2025-11-05 10:36 | 0.16972 | 37.42310 | 7014 ft | 223 kts | 233° |
| 2025-11-05 10:37 | 0.15039 | 37.39714 | 7749 ft | 233 kts | 233° |
| 2025-11-05 10:37 | 0.13112 | 37.37164 | 8784 ft | 227 kts | 233° |
| 2025-11-05 10:38 | 0.11227 | 37.34709 | 9803 ft | 219 kts | 233° |
| 2025-11-05 10:38 | 0.09405 | 37.32362 | 10810 ft | 211 kts | 233° |
| 2025-11-05 10:39 | 0.06981 | 37.28874 | 12319 ft | 197 kts | 239° |
| 2025-11-05 10:39 | 0.05618 | 37.26590 | 13275 ft | 186 kts | 239° |
| 2025-11-05 10:40 | 0.04313 | 37.24408 | 14107 ft | 183 kts | 239° |
| 2025-11-05 10:40 | 0.02995 | 37.22251 | 14906 ft | 183 kts | 239° |
| 2025-11-05 10:41 | 0.02331 | 37.21167 | 15304 ft | 184 kts | 239° |
| 2025-11-05 10:41 | 0.01041 | 37.18975 | 16099 ft | 184 kts | 239° |
| 2025-11-05 10:42 | -0.00221 | 37.16727 | 16899 ft | 187 kts | 239° |
| 2025-11-05 10:42 | -0.01491 | 37.14472 | 17711 ft | 189 kts | 239° |
| 2025-11-05 10:43 | -0.03433 | 37.11006 | 18941 ft | 192 kts | 239° |
| 2025-11-05 10:43 | -0.04090 | 37.09835 | 19350 ft | 193 kts | 239° |
| 2025-11-05 10:44 | -0.06057 | 37.06310 | 20359 ft | 206 kts | 239° |
| 2025-11-05 10:44 | -0.07577 | 37.03611 | 20340 ft | 233 kts | 239° |
| 2025-11-05 10:45 | -0.09448 | 37.00852 | 20347 ft | 248 kts | 233° |
| 2025-11-05 10:45 | -0.11498 | 36.97946 | 20348 ft | 263 kts | 233° |
| 2025-11-05 10:46 | -0.13668 | 36.94877 | 20350 ft | 275 kts | 233° |
| 2025-11-05 10:46 | -0.15909 | 36.91665 | 20361 ft | 287 kts | 233° |
| 2025-11-05 10:47 | -0.19430 | 36.86611 | 20346 ft | 302 kts | 233° |
| 2025-11-05 10:47 | -0.20656 | 36.84863 | 20349 ft | 307 kts | 233° |
| 2025-11-05 10:48 | -0.23147 | 36.81312 | 20347 ft | 314 kts | 232° |
| 2025-11-05 10:48 | -0.25680 | 36.77709 | 20345 ft | 320 kts | 233° |
| 2025-11-05 10:49 | -0.28250 | 36.74062 | 20356 ft | 325 kts | 233° |
| 2025-11-05 10:49 | -0.30892 | 36.70320 | 20398 ft | 329 kts | 233° |
| 2025-11-05 10:50 | -0.32202 | 36.68469 | 20409 ft | 331 kts | 233° |
| 2025-11-05 10:50 | -0.36224 | 36.62793 | 20428 ft | 335 kts | 233° |
| 2025-11-05 10:51 | -0.38938 | 36.58969 | 20443 ft | 337 kts | 233° |
| 2025-11-05 10:51 | -0.41648 | 36.55157 | 20450 ft | 339 kts | 233° |
| 2025-11-05 10:52 | -0.44391 | 36.51289 | 20448 ft | 340 kts | 233° |
| 2025-11-05 10:52 | -0.47118 | 36.47430 | 20445 ft | 342 kts | 233° |
| 2025-11-05 10:53 | -0.49878 | 36.43524 | 20441 ft | 343 kts | 233° |
| 2025-11-05 10:53 | -0.52643 | 36.39640 | 20427 ft | 344 kts | 233° |
| 2025-11-05 10:54 | -0.55428 | 36.35729 | 20423 ft | 345 kts | 233° |
| 2025-11-05 10:54 | -0.56828 | 36.33768 | 20409 ft | 346 kts | 233° |
| 2025-11-05 10:55 | -0.59626 | 36.29860 | 20386 ft | 346 kts | 233° |
| 2025-11-05 10:55 | -0.63827 | 36.23960 | 20375 ft | 347 kts | 233° |
| 2025-11-05 10:56 | -0.66626 | 36.20022 | 20379 ft | 347 kts | 233° |
| 2025-11-05 10:56 | -0.69449 | 36.16066 | 20382 ft | 348 kts | 233° |
| 2025-11-05 10:57 | -0.72258 | 36.12137 | 20387 ft | 348 kts | 233° |
| 2025-11-05 10:57 | -0.75063 | 36.08231 | 20394 ft | 347 kts | 233° |
| 2025-11-05 10:58 | -0.76482 | 36.06249 | 20397 ft | 347 kts | 233° |
| 2025-11-05 10:58 | -0.79287 | 36.02322 | 20397 ft | 348 kts | 233° |
| 2025-11-05 10:59 | -0.83491 | 35.96417 | 20397 ft | 348 kts | 233° |
| 2025-11-05 10:59 | -0.86304 | 35.92477 | 20400 ft | 348 kts | 233° |
| 2025-11-05 11:00 | -0.89120 | 35.88536 | 20389 ft | 348 kts | 233° |
| 2025-11-05 11:00 | -0.90536 | 35.86561 | 20382 ft | 348 kts | 233° |
| 2025-11-05 11:01 | -0.94768 | 35.80657 | 20369 ft | 348 kts | 233° |
| 2025-11-05 11:01 | -0.96174 | 35.78695 | 20362 ft | 348 kts | 233° |
| 2025-11-05 11:02 | -0.99006 | 35.74741 | 20342 ft | 348 kts | 233° |
| 2025-11-05 11:02 | -1.01821 | 35.70816 | 20333 ft | 349 kts | 233° |
| 2025-11-05 11:03 | -1.04658 | 35.66861 | 20320 ft | 349 kts | 233° |
| 2025-11-05 11:03 | -1.08971 | 35.60887 | 19344 ft | 367 kts | 233° |
| 2025-11-05 11:04 | -1.11965 | 35.56684 | 18572 ft | 376 kts | 233° |
| 2025-11-05 11:04 | -1.15012 | 35.52373 | 17789 ft | 378 kts | 233° |
| 2025-11-05 11:05 | -1.18010 | 35.48097 | 16985 ft | 368 kts | 233° |
| 2025-11-05 11:05 | -1.20916 | 35.43984 | 16185 ft | 360 kts | 233° |
| 2025-11-05 11:06 | -1.22367 | 35.41946 | 15772 ft | 354 kts | 233° |
| 2025-11-05 11:06 | -1.25168 | 35.38032 | 14957 ft | 343 kts | 233° |
| 2025-11-05 11:07 | -1.27936 | 35.34199 | 14138 ft | 333 kts | 233° |
| 2025-11-05 11:07 | -1.31982 | 35.28671 | 12911 ft | 322 kts | 233° |
| 2025-11-05 11:08 | -1.34610 | 35.25095 | 12104 ft | 316 kts | 233° |
| 2025-11-05 11:08 | -1.37203 | 35.21570 | 11302 ft | 311 kts | 233° |
| 2025-11-05 11:09 | -1.39546 | 35.18006 | 10083 ft | 316 kts | 251° |
| 2025-11-05 11:09 | -1.40074 | 35.13709 | 8831 ft | 305 kts | 269° |
| 2025-11-05 11:10 | -1.40101 | 35.11628 | 8368 ft | 297 kts | 269° |
| 2025-11-05 11:10 | -1.39922 | 35.07842 | 8146 ft | 262 kts | 275° |
| 2025-11-05 11:11 | -1.39853 | 35.02311 | 6620 ft | 260 kts | 248° |
| 2025-11-05 11:11 | -1.41248 | 35.02571 | 7193 ft | 169 kts | 71° |
| 2025-11-05 11:12 | -1.41237 | 35.04776 | 6756 ft | 139 kts | 92° |
| 2025-11-05 11:12 | -1.41300 | 35.06603 | 6075 ft | 127 kts | 90° |
| 2025-11-05 11:13 | -1.41193 | 35.08258 | 5656 ft | 118 kts | 85° |
| 2025-11-05 11:13 | -1.41000 | 35.09907 | 5220 ft | 123 kts | 83° |
| 2025-11-05 11:14 | -1.40898 | 35.10724 | 5040 ft | 108 kts | 84° |
| 2025-11-05 11:14 | -1.40800 | 35.11420 | 5042 ft | 9 kts | 268° |
| 2025-11-05 11:15 | -1.40848 | 35.11143 | 5043 ft | 20 kts | 264° |
| 2025-11-05 11:15 | -1.40938 | 35.11088 | 5041 ft | 0 kts | 5° |